Main page
METAR-TAF:

METAR-TAF

Airports :

Deauville – Normandie Airport

Deauville, France

latitude: 49-21-55N, longitude: 000-09-16E, elevation: 146 m

Current weather observation

The report was made 29 minutes ago, at 18:30 UTC
Wind 9 kt from the South/Southwest
Temperature 4°C
Humidity 93%
Pressure 1027 hPa
Visibility: 9000 m
Few clouds at a height of 1200 ft
Overcast at a height of 4100 ft

METAR: LFRG 291830Z AUTO 20009KT 9000 FEW012 OVC041 04/03 Q1027 TEMPO 4000 RA BKN007

Time: 19:59 (18:59 UTC)

Forecast

The report was made 4 hours and 59 minutes ago, at 14:00 UTC
Forecast valid from 29 at 15 UTC to 29 at 24 UTC
Wind 10 kt from the West/Southwest
Visibility 10 km or more
Overcast at a height of 2000 ft
Temporary
from 29 at 15 UTC to 29 at 24 UTC
Broken clouds at a height of 1200 ft
Probability 40% :
Temporary
from 29 at 15 UTC to 29 at 24 UTC
Visibility: 4000 m
Broken clouds at a height of 700 ft
rain

TAF: LFRG 291400Z 2915/2924 25010KT 9999 OVC020 TEMPO 2915/2924 BKN012 PROB40 TEMPO 2915/2924 4000 RA BKN007

Weather observations and forecasts of more than 4000 airports (METAR and TAF reports).

The available stations are represented by yellow and red dots on the map.

Hover mouse over dot to see the name of the station.

Then click to see weather observations and forecasts.

To change the map : click on the green buttons with a black cross to zoom in, on the green button with a dash to zoom out, or on the green arrows for adjacent maps.


METAR-TAF: